Hetton le Hole, United Kingdom
Current Conditions -  °F | °C
As of 5:50 PM on Friday 24 Oct 2014 (Local Time) from EGNT Reporting Station
Scattered Clouds Scattered Clouds  
Wind Chill: 10°   Ceiling: Unl
Heat Index: 10°   Visibility: 6mi
Dew Point:   Wind: 5mph
Humidity: 71%   Direction: 230°SW
Pressure: 29.77"   Gusts: NA
Location:  54.82°N, 1.45°W
Report Text: EGNT 241650Z 23004KT 190V250 9999 SCT045 10/05 Q1008
Loading
Personal Weather Stations






























Interactive Weather Map
Tropical Storm Tracking
New forecast layout! Learn more

10-Day Weather Forecast

Advertisements
Track Severe Weather on mobile